Terminal Aerodrome Forecast
Issued by NWS Lake Charles, LA

Home | Current Version | Previous Version | Text Only | Print | Product List | Glossary On
Versions: 1 2 3 4 5 6 7 8 9 10 11 12 13 14 15 16 17 18
078
FTUS44 KLCH 041135
TAFBPT
TAF
KBPT 041135Z 0412/0512 08010KT 6SM -RA BR OVC003
     FM041400 35010KT 5SM -SHRA BR OVC004
      TEMPO 0415/0419 2SM +SHRA
     FM042200 04012G18KT 5SM -SHRA BR OVC007=

USA.gov is the U.S. government's official web portal to all federal, state and local government web resources and services.